createdAt,value
2023-05-07T00:02:26.898Z,16.8
2023-05-07T00:07:50.146Z,16.8
2023-05-07T00:13:26.588Z,16.8
2023-05-07T00:19:03.741Z,16.8
2023-05-07T00:24:41.958Z,16.8
2023-05-07T00:30:18.270Z,16.8
2023-05-07T00:36:11.098Z,16.8
2023-05-07T00:42:03.591Z,16.8
2023-05-07T00:47:40.383Z,16.8
2023-05-07T00:53:32.712Z,16.8
2023-05-07T00:59:24.284Z,16.8
2023-05-07T01:05:22.011Z,16.8
2023-05-07T01:11:01.076Z,16.8
2023-05-07T01:16:53.286Z,16.8
2023-05-07T01:22:45.346Z,16.8
2023-05-07T01:28:37.299Z,16.8
2023-05-07T01:34:29.907Z,16.8
2023-05-07T01:40:22.148Z,16.8
2023-05-07T01:46:14.464Z,16.8
2023-05-07T01:52:07.433Z,16.8
2023-05-07T01:57:58.330Z,16.7
2023-05-07T02:03:52.218Z,16.7
2023-05-07T02:09:43.521Z,16.7
2023-05-07T02:15:35.737Z,16.7
2023-05-07T02:21:29.932Z,16.8
2023-05-07T02:27:23.242Z,16.7
2023-05-07T02:33:15.242Z,16.7
2023-05-07T02:39:06.629Z,16.7
2023-05-07T02:44:58.752Z,16.7
2023-05-07T02:50:50.227Z,16.7
2023-05-07T02:56:45.298Z,16.7
2023-05-07T03:02:38.952Z,16.6
2023-05-07T03:08:30.991Z,16.6
2023-05-07T03:14:23.300Z,16.6
2023-05-07T03:20:16.201Z,16.6
2023-05-07T03:26:10.001Z,16.6
2023-05-07T03:32:02.068Z,16.6
2023-05-07T03:37:54.358Z,16.6
2023-05-07T03:43:47.486Z,16.6
2023-05-07T03:49:39.427Z,16.6
2023-05-07T03:55:32.368Z,16.6
2023-05-07T04:01:24.124Z,16.6
2023-05-07T04:07:18.152Z,16.6
2023-05-07T04:13:10.468Z,16.6
2023-05-07T04:19:02.681Z,16.6
2023-05-07T04:24:54.848Z,16.6
2023-05-07T04:30:47.809Z,16.6
2023-05-07T04:36:39.231Z,16.6
2023-05-07T04:42:31.401Z,16.6
2023-05-07T04:48:24.491Z,16.6
2023-05-07T04:54:16.179Z,16.6
2023-05-07T05:00:08.967Z,16.6
2023-05-07T05:06:02.621Z,16.6
2023-05-07T05:11:53.515Z,16.6
2023-05-07T05:17:46.764Z,16.6
2023-05-07T05:23:39.056Z,16.6
2023-05-07T05:29:29.962Z,16.6
2023-05-07T05:35:24.091Z,16.6
2023-05-07T05:41:16.449Z,16.6
2023-05-07T05:46:54.733Z,16.6
2023-05-07T05:52:47.630Z,16.6
2023-05-07T05:58:40.301Z,16.6
2023-05-07T06:04:31.988Z,16.6
2023-05-07T06:10:24.583Z,16.6
2023-05-07T06:16:16.891Z,16.6
2023-05-07T06:22:08.016Z,16.6
2023-05-07T06:28:02.219Z,16.6
2023-05-07T06:33:55.119Z,16.6
2023-05-07T06:39:47.048Z,16.6
2023-05-07T06:45:38.830Z,16.6
2023-05-07T06:51:16.906Z,16.6
2023-05-07T06:57:09.707Z,16.6
2023-05-07T07:03:02.474Z,16.6
2023-05-07T07:08:55.063Z,16.6
2023-05-07T07:14:47.289Z,16.6
2023-05-07T07:20:40.805Z,16.6
2023-05-07T07:26:34.729Z,16.6
2023-05-07T07:32:27.972Z,16.6
2023-05-07T07:38:31.537Z,16.6
2023-05-07T07:44:25.381Z,16.6
2023-05-07T07:50:32.025Z,16.6
2023-05-07T07:56:33.582Z,16.6
2023-05-07T08:02:29.801Z,16.6
2023-05-07T08:08:11.900Z,16.6
2023-05-07T08:14:06.337Z,16.6
2023-05-07T08:20:00.589Z,16.6
2023-05-07T08:25:55.251Z,16.6
2023-05-07T08:31:50.507Z,16.6
2023-05-07T08:37:46.135Z,16.6
2023-05-07T08:43:42.096Z,16.6
2023-05-07T08:49:37.209Z,16.6
2023-05-07T08:55:31.548Z,16.6
2023-05-07T09:01:26.139Z,16.6
2023-05-07T09:07:06.096Z,16.7
2023-05-07T09:13:03.278Z,16.7
2023-05-07T09:18:42.722Z,16.7
2023-05-07T09:24:39.329Z,16.7
2023-05-07T09:30:36.706Z,16.7
2023-05-07T09:36:32.861Z,16.7
2023-05-07T09:42:30.288Z,16.7
2023-05-07T09:48:24.059Z,16.7
2023-05-07T09:54:17.357Z,16.7
2023-05-07T10:00:15.051Z,16.7
2023-05-07T10:06:11.804Z,16.7
2023-05-07T10:12:04.938Z,16.7
2023-05-07T10:18:01.369Z,16.7
2023-05-07T10:23:57.924Z,16.8
2023-05-07T10:29:53.575Z,16.8
2023-05-07T10:35:49.981Z,16.8
2023-05-07T10:41:29.517Z,16.8
2023-05-07T10:47:23.418Z,16.8
2023-05-07T10:53:21.987Z,16.8
2023-05-07T10:59:23.668Z,16.8
2023-05-07T11:05:28.340Z,16.8
2023-05-07T11:11:22.569Z,16.8
2023-05-07T11:17:17.124Z,16.8
2023-05-07T11:23:17.027Z,16.8
2023-05-07T11:29:11.803Z,16.8
2023-05-07T11:35:06.501Z,16.8
2023-05-07T11:40:45.181Z,16.8
2023-05-07T11:46:44.307Z,16.8
2023-05-07T11:52:40.703Z,16.9
2023-05-07T11:58:35.345Z,16.9
2023-05-07T12:04:30.374Z,16.9
2023-05-07T12:10:28.048Z,16.9
2023-05-07T12:16:07.972Z,16.9
2023-05-07T12:21:46.455Z,16.9
2023-05-07T12:27:11.433Z,16.9
2023-05-07T12:32:49.219Z,16.9
2023-05-07T12:38:42.706Z,16.9
2023-05-07T13:18:36.089Z,17.1
2023-05-07T13:30:36.467Z,17.1
2023-05-07T13:36:30.966Z,17.1
2023-05-07T13:42:24.817Z,17.1
2023-05-07T13:48:17.304Z,17.1
2023-05-07T13:53:54.953Z,17.1
2023-05-07T14:00:02.324Z,17.1
2023-05-07T14:05:40.444Z,17.2
2023-05-07T14:11:34.785Z,17.2
2023-05-07T14:17:28.147Z,17.2
2023-05-07T14:23:23.241Z,17.2
2023-05-07T14:29:32.320Z,17.2
2023-05-07T14:35:24.315Z,17.2
2023-05-07T14:41:16.831Z,17.3
2023-05-07T14:47:09.875Z,17.3
2023-05-07T14:53:00.947Z,17.3
2023-05-07T14:58:55.593Z,17.3
2023-05-07T15:04:52.114Z,17.4
2023-05-07T15:10:43.320Z,17.4
2023-05-07T15:16:35.666Z,17.4
2023-05-07T15:22:31.205Z,17.3
2023-05-07T15:28:22.874Z,17.3
2023-05-07T15:34:17.049Z,17.3
2023-05-07T15:40:09.087Z,17.3
2023-05-07T15:46:00.407Z,17.3
2023-05-07T15:51:52.944Z,17.3
2023-05-07T15:57:45.797Z,17.4
2023-05-07T16:03:39.233Z,17.4
2023-05-07T16:09:32.487Z,17.4
2023-05-07T16:15:25.339Z,17.4
2023-05-07T16:21:19.292Z,17.4
2023-05-07T16:27:11.162Z,17.4
2023-05-07T16:33:02.745Z,17.4
2023-05-07T16:38:56.034Z,17.4
2023-05-07T16:44:51.048Z,17.4
2023-05-07T16:50:27.588Z,17.4
2023-05-07T16:56:04.796Z,17.4
2023-05-07T17:02:13.394Z,17.4
2023-05-07T17:08:05.799Z,17.4
2023-05-07T17:13:59.528Z,17.4
2023-05-07T17:19:51.676Z,17.4
2023-05-07T17:25:43.372Z,17.4
2023-05-07T17:31:34.940Z,17.4
2023-05-07T17:37:43.709Z,17.4
2023-05-07T17:43:19.933Z,17.4
2023-05-07T17:49:11.290Z,17.4
2023-05-07T17:55:12.464Z,17.4
2023-05-07T18:01:02.044Z,17.4
2023-05-07T18:06:53.812Z,17.4
2023-05-07T18:12:30.197Z,17.4
2023-05-07T18:18:22.520Z,17.4
2023-05-07T18:24:15.543Z,17.4
2023-05-07T18:30:07.832Z,17.4
2023-05-07T18:35:47.628Z,17.4
2023-05-07T18:41:39.530Z,17.4
2023-05-07T18:47:31.859Z,17.4
2023-05-07T18:53:24.421Z,17.4
2023-05-07T18:58:59.388Z,17.4
2023-05-07T19:04:51.752Z,17.4
2023-05-07T19:10:55.415Z,17.4
2023-05-07T19:16:50.283Z,17.4
2023-05-07T19:22:42.678Z,17.4
2023-05-07T19:28:36.635Z,17.4
2023-05-07T19:34:48.457Z,17.4
2023-05-07T19:40:26.249Z,17.4
2023-05-07T19:46:19.213Z,17.4
2023-05-07T19:52:14.139Z,17.4
2023-05-07T19:58:08.328Z,17.4
2023-05-07T20:04:02.778Z,17.4
2023-05-07T20:09:40.558Z,17.4
2023-05-07T20:15:19.698Z,17.4
2023-05-07T20:21:14.402Z,17.4
2023-05-07T20:26:50.492Z,17.4
2023-05-07T20:32:42.804Z,17.4
2023-05-07T20:38:34.822Z,17.4
2023-05-07T20:44:26.667Z,17.4
2023-05-07T20:50:21.564Z,17.4
2023-05-07T20:56:16.415Z,17.4
2023-05-07T21:02:09.067Z,17.4
2023-05-07T21:08:01.298Z,17.4
2023-05-07T21:13:53.339Z,17.4
2023-05-07T21:19:45.220Z,17.4
2023-05-07T21:25:37.024Z,17.4
2023-05-07T21:31:13.804Z,17.4
2023-05-07T21:37:06.328Z,17.4
2023-05-07T21:42:58.745Z,17.4
2023-05-07T21:48:50.873Z,17.4
2023-05-07T21:54:41.674Z,17.4
2023-05-07T22:00:49.477Z,17.4
2023-05-07T22:06:42.623Z,17.4
2023-05-07T22:12:33.486Z,17.4
2023-05-07T22:18:38.831Z,17.4
2023-05-07T22:24:32.082Z,17.3
2023-05-07T22:30:07.413Z,17.3
2023-05-07T22:36:02.800Z,17.3
2023-05-07T22:41:55.148Z,17.3
2023-05-07T22:47:47.531Z,17.3
2023-05-07T22:53:40.029Z,17.4
2023-05-07T22:59:31.568Z,17.3
2023-05-07T23:05:23.476Z,17.3
2023-05-07T23:11:15.025Z,17.3
2023-05-07T23:17:09.887Z,17.3
2023-05-07T23:23:01.551Z,17.3
2023-05-07T23:28:53.502Z,17.3
2023-05-07T23:34:45.946Z,17.3
2023-05-07T23:40:36.723Z,17.3
2023-05-07T23:46:27.763Z,17.3
2023-05-07T23:52:19.373Z,17.3
2023-05-07T23:58:09.485Z,17.3
